Time;durP1;ratioP1;P1;durP2;ratioP2;P2;SDS_P1;SDS_P2;PMS_P1;PMS_P2;Temp;Humidity;BMP_temperature;BMP_pressure;BME280_temperature;BME280_humidity;BME280_pressure;Samples;Min_cycle;Max_cycle;Signal;HPM_P1;HPM_P2
2023/07/16 00:04:27;;;;;;;11.07;5.30;;;;;;;-147.65;100.00;57646.63;10327202;28;20046;-75
2023/07/16 00:09:28;;;;;;;11.27;6.15;;;;;;;-147.65;100.00;57646.63;10294408;28;20046;-75
2023/07/16 00:14:28;;;;;;;9.57;5.15;;;;;;;-147.65;100.00;57646.63;10279924;28;20117;-75
2023/07/16 00:19:29;;;;;;;10.38;5.38;;;;;;;-147.65;100.00;57646.63;10329480;28;20034;-74
2023/07/16 00:24:29;;;;;;;11.23;5.05;;;;;;;-147.65;100.00;57646.63;10327258;28;20402;-75
2023/07/16 00:29:30;;;;;;;13.05;6.22;;;;;;;-147.65;100.00;57646.63;10325091;28;20066;-75
2023/07/16 00:34:30;;;;;;;9.70;5.43;;;;;;;-147.65;100.00;57646.63;10324026;28;20066;-75
2023/07/16 00:39:31;;;;;;;8.63;5.50;;;;;;;-147.65;100.00;57646.63;10327427;28;20519;-75
2023/07/16 00:44:31;;;;;;;14.90;6.85;;;;;;;-147.65;100.00;57646.63;10279390;28;20062;-75
2023/07/16 00:49:32;;;;;;;11.02;6.10;;;;;;;-147.65;100.00;57646.63;10287144;28;20096;-76
2023/07/16 00:54:33;;;;;;;12.55;6.95;;;;;;;-147.65;100.00;57646.63;10333022;28;20501;-75
2023/07/16 00:59:33;;;;;;;17.50;7.00;;;;;;;-147.65;100.00;57646.63;10343911;28;20096;-75
2023/07/16 01:04:34;;;;;;;105.55;16.70;;;;;;;-147.65;100.00;57646.63;10323834;28;20069;-76
2023/07/16 01:09:36;;;;;;;71.65;14.13;;;;;;;-147.65;100.00;57646.63;10328699;28;20397;-75
2023/07/16 01:14:37;;;;;;;55.05;11.82;;;;;;;-147.65;100.00;57646.63;10303931;28;20047;-75
2023/07/16 01:19:37;;;;;;;12.55;8.35;;;;;;;-147.65;100.00;57646.63;10277473;28;20057;-75
2023/07/16 01:24:56;;;;;;;16.75;9.25;;;;;;;-147.65;100.00;57646.63;10300864;28;20050;-76
2023/07/16 01:30:04;;;;;;;14.40;10.07;;;;;;;-147.65;100.00;57646.63;10314999;28;20490;-75
2023/07/16 01:35:07;;;;;;;17.98;9.98;;;;;;;-147.65;100.00;57646.63;10310530;28;20038;-75
2023/07/16 01:40:11;;;;;;;13.00;7.22;;;;;;;-147.65;100.00;57646.63;10299645;28;20125;-75
2023/07/16 01:45:11;;;;;;;13.85;6.55;;;;;;;-147.65;100.00;57646.63;10298323;28;20049;-75
2023/07/16 01:50:12;;;;;;;24.30;9.75;;;;;;;-147.65;100.00;57646.63;10278397;28;20394;-75
2023/07/16 01:55:12;;;;;;;12.07;6.28;;;;;;;-147.65;100.00;57646.63;10295610;28;20042;-75
2023/07/16 02:00:13;;;;;;;14.30;6.90;;;;;;;-147.65;100.00;57646.63;10297514;28;20130;-76
2023/07/16 02:05:14;;;;;;;10.60;6.30;;;;;;;-147.65;100.00;57646.63;10332070;28;20038;-75
2023/07/16 02:10:15;;;;;;;12.20;6.10;;;;;;;-147.65;100.00;57646.63;10335226;28;20034;-75
2023/07/16 02:15:17;;;;;;;13.73;6.13;;;;;;;-147.65;100.00;57646.63;10342981;28;20277;-75
2023/07/16 02:20:18;;;;;;;;;;;;;;;-147.65;100.00;57646.63;10329597;28;20051;-76
2023/07/16 02:25:18;;;;;;;13.15;7.32;;;;;;;-147.65;100.00;57646.63;10327592;28;20366;-75
2023/07/16 02:30:19;;;;;;;18.30;7.38;;;;;;;-147.65;100.00;57646.63;10326979;28;20486;-75
2023/07/16 02:35:19;;;;;;;12.10;5.32;;;;;;;-147.65;100.00;57646.63;10325081;28;20045;-75
2023/07/16 02:40:20;;;;;;;15.30;6.75;;;;;;;-147.65;100.00;57646.63;10291986;28;20392;-75
2023/07/16 02:45:20;;;;;;;15.23;6.22;;;;;;;-147.65;100.00;57646.63;10284862;28;20129;-75
2023/07/16 02:50:21;;;;;;;13.20;6.45;;;;;;;-147.65;100.00;57646.63;10320701;28;20065;-74
2023/07/16 02:55:21;;;;;;;9.57;5.30;;;;;;;-147.65;100.00;57646.63;10287932;28;20042;-74
2023/07/16 03:00:22;;;;;;;14.55;5.43;;;;;;;-147.65;100.00;57646.63;10327552;28;20038;-75
2023/07/16 03:05:24;;;;;;;11.07;5.65;;;;;;;-147.65;100.00;57646.63;10323552;28;20054;-76
2023/07/16 03:10:26;;;;;;;13.43;5.47;;;;;;;-147.65;100.00;57646.63;10333546;28;20519;-75
2023/07/16 03:15:27;;;;;;;10.13;5.47;;;;;;;-147.65;100.00;57646.63;10341461;28;20045;-74
2023/07/16 03:20:27;;;;;;;13.27;5.47;;;;;;;-147.65;100.00;57646.63;10331232;28;20042;-75
2023/07/16 03:25:28;;;;;;;16.50;6.15;;;;;;;-147.65;100.00;57646.63;10350992;28;20039;-74
2023/07/16 03:30:30;;;;;;;13.55;6.45;;;;;;;-147.65;100.00;57646.63;10335938;28;20152;-75
2023/07/16 03:35:30;;;;;;;;;;;;;;;-147.65;100.00;57646.63;10335220;28;20137;-76
2023/07/16 03:40:31;;;;;;;14.15;5.70;;;;;;;-147.65;100.00;57646.63;10334276;28;19922;-74
2023/07/16 03:45:32;;;;;;;17.48;6.15;;;;;;;-147.65;100.00;57646.63;10332853;28;20046;-75
2023/07/16 03:50:32;;;;;;;12.02;5.72;;;;;;;-147.65;100.00;57646.63;10322683;28;20121;-76
2023/07/16 03:55:33;;;;;;;13.95;6.78;;;;;;;-147.65;100.00;57646.63;10311447;28;20100;-75
2023/07/16 04:00:33;;;;;;;15.10;7.68;;;;;;;-147.65;100.00;57646.63;10321742;28;20048;-76
2023/07/16 04:05:34;;;;;;;17.63;10.75;;;;;;;-147.65;100.00;57646.63;10318353;28;20509;-76
2023/07/16 04:10:34;;;;;;;16.90;7.43;;;;;;;-147.65;100.00;57646.63;10341251;28;20044;-75
2023/07/16 04:15:35;;;;;;;15.23;6.50;;;;;;;-147.65;100.00;57646.63;10327133;28;20038;-75
2023/07/16 04:20:35;;;;;;;15.77;7.70;;;;;;;-147.65;100.00;57646.63;10331172;28;20483;-76
2023/07/16 04:25:36;;;;;;;14.95;7.47;;;;;;;-147.65;100.00;57646.63;10300147;28;20035;-76
2023/07/16 04:30:37;;;;;;;19.20;7.80;;;;;;;-147.65;100.00;57646.63;10301685;28;20062;-75
2023/07/16 04:35:37;;;;;;;13.93;6.35;;;;;;;-147.65;100.00;57646.63;10322945;28;20419;-75
2023/07/16 04:40:38;;;;;;;19.48;5.97;;;;;;;-147.65;100.00;57646.63;10324130;28;20035;-75
2023/07/16 04:45:39;;;;;;;17.80;8.77;;;;;;;-147.65;100.00;57646.63;10328097;28;20046;-74
2023/07/16 04:50:40;;;;;;;20.20;5.67;;;;;;;-147.65;100.00;57646.63;10329899;28;20034;-74
2023/07/16 04:55:40;;;;;;;10.30;6.18;;;;;;;-147.65;100.00;57646.63;10323246;28;20104;-75
2023/07/16 05:00:41;;;;;;;15.98;6.80;;;;;;;-147.65;100.00;57646.63;10326867;28;20048;-75
2023/07/16 05:05:42;;;;;;;10.00;4.55;;;;;;;-147.65;100.00;57646.63;10320033;28;20066;-74
2023/07/16 05:10:42;;;;;;;12.75;5.63;;;;;;;-147.65;100.00;57646.63;10304418;28;20054;-74
2023/07/16 05:15:46;;;;;;;16.52;4.85;;;;;;;-147.65;100.00;57646.63;10337424;28;20077;-74
2023/07/16 05:20:48;;;;;;;9.98;4.63;;;;;;;-147.65;100.00;57646.63;10320626;28;20050;-74
2023/07/16 05:25:48;;;;;;;11.50;4.10;;;;;;;-147.65;100.00;57646.63;10291053;28;20046;-74
2023/07/16 05:31:00;;;;;;;10.48;3.97;;;;;;;-147.65;100.00;57646.63;10326507;28;20106;-76
2023/07/16 05:36:01;;;;;;;16.73;5.45;;;;;;;-147.65;100.00;57646.63;10317042;28;20374;-77
2023/07/16 05:41:02;;;;;;;12.63;3.95;;;;;;;-147.65;100.00;57646.63;10292277;28;20038;-76
2023/07/16 05:46:05;;;;;;;17.80;4.30;;;;;;;-147.65;100.00;57646.63;10270049;28;20129;-77
2023/07/16 05:51:08;;;;;;;9.68;3.60;;;;;;;-147.65;100.00;57646.63;10325935;28;20498;-77
2023/07/16 05:56:09;;;;;;;8.38;3.83;;;;;;;-147.65;100.00;57646.63;10338963;28;20037;-76
2023/07/16 06:01:09;;;;;;;8.40;4.57;;;;;;;-147.65;100.00;57646.63;10341011;28;20045;-77
2023/07/16 06:06:10;;;;;;;12.80;3.67;;;;;;;-147.65;100.00;57646.63;10288588;28;20141;-75
2023/07/16 06:11:11;;;;;;;8.53;5.07;;;;;;;-147.65;100.00;57646.63;10320089;28;20050;-76
2023/07/16 06:16:11;;;;;;;14.57;5.20;;;;;;;-147.65;100.00;57646.63;10313018;28;20545;-78
2023/07/16 06:21:12;;;;;;;10.63;5.37;;;;;;;-147.65;100.00;57646.63;10330397;28;20320;-78
2023/07/16 06:26:12;;;;;;;8.90;5.60;;;;;;;-147.65;100.00;57646.63;10353998;28;20445;-78
2023/07/16 06:31:13;;;;;;;9.30;4.43;;;;;;;-147.65;100.00;57646.63;10321874;28;20054;-76
2023/07/16 06:36:14;;;;;;;15.07;4.53;;;;;;;-147.65;100.00;57646.63;10332868;28;20047;-76
2023/07/16 06:41:15;;;;;;;8.90;5.85;;;;;;;-147.65;100.00;57646.63;10329892;28;20083;-78
2023/07/16 06:46:15;;;;;;;8.73;5.77;;;;;;;-147.65;100.00;57646.63;10341257;28;20093;-79
2023/07/16 06:51:16;;;;;;;9.60;5.23;;;;;;;-147.65;100.00;57646.63;10320110;28;20380;-78
2023/07/16 06:56:16;;;;;;;9.77;5.27;;;;;;;-147.65;100.00;57646.63;10329434;28;20042;-77
2023/07/16 07:01:17;;;;;;;9.30;5.83;;;;;;;-147.65;100.00;57646.63;10297131;28;20569;-79
2023/07/16 07:06:17;;;;;;;12.30;5.83;;;;;;;-147.65;100.00;57646.63;10316858;28;20053;-77
2023/07/16 07:11:18;;;;;;;12.90;6.13;;;;;;;-147.65;100.00;57646.63;10341344;28;20045;-78
2023/07/16 07:16:19;;;;;;;11.13;5.83;;;;;;;-147.65;100.00;57646.63;10329176;28;20042;-77
2023/07/16 07:21:20;;;;;;;9.70;5.60;;;;;;;-147.65;100.00;57646.63;10337994;28;20140;-76
2023/07/16 07:26:20;;;;;;;11.40;5.53;;;;;;;-147.65;100.00;57646.63;10330594;28;20668;-76
2023/07/16 07:31:21;;;;;;;14.10;5.13;;;;;;;-147.65;100.00;57646.63;10332784;28;20052;-76
2023/07/16 07:36:24;;;;;;;13.15;7.18;;;;;;;-147.65;100.00;57646.63;10317101;28;20045;-77
2023/07/16 07:41:25;;;;;;;16.20;10.30;;;;;;;-147.65;100.00;57646.63;10322560;28;20081;-77
2023/07/16 07:46:26;;;;;;;13.65;7.15;;;;;;;-147.65;100.00;57646.63;10328232;28;20040;-76
2023/07/16 07:51:26;;;;;;;12.33;5.47;;;;;;;-147.65;100.00;57646.63;10321243;28;20045;-77
2023/07/16 07:56:27;;;;;;;14.53;7.37;;;;;;;-147.65;100.00;57646.63;10321764;28;20121;-77
2023/07/16 08:01:29;;;;;;;9.90;5.47;;;;;;;-147.65;100.00;57646.63;10326030;28;20501;-81
2023/07/16 08:06:30;;;;;;;9.85;6.68;;;;;;;-147.65;100.00;57646.63;10312149;28;20038;-75
2023/07/16 08:11:30;;;;;;;11.87;5.03;;;;;;;-147.65;100.00;57646.63;10320800;28;20039;-78
2023/07/16 08:16:31;;;;;;;11.67;5.87;;;;;;;-147.65;100.00;57646.63;10311230;28;20037;-77
2023/07/16 08:21:32;;;;;;;8.03;4.93;;;;;;;-147.65;100.00;57646.63;10325834;28;20048;-77
2023/07/16 08:26:33;;;;;;;14.60;6.90;;;;;;;-147.65;100.00;57646.63;10315419;28;20394;-77
2023/07/16 08:31:33;;;;;;;15.43;6.40;;;;;;;-147.65;100.00;57646.63;10349786;28;20044;-76
2023/07/16 08:36:34;;;;;;;9.57;4.67;;;;;;;-147.65;100.00;57646.63;10339972;28;20069;-76
2023/07/16 08:41:34;;;;;;;11.70;4.30;;;;;;;-147.65;100.00;57646.63;10321206;28;20141;-78
2023/07/16 08:46:38;;;;;;;10.13;4.60;;;;;;;-147.65;100.00;57646.63;10313226;28;20147;-77
2023/07/16 08:51:39;;;;;;;10.02;5.07;;;;;;;-147.65;100.00;57646.63;10329955;28;20108;-78
2023/07/16 08:56:39;;;;;;;7.87;4.73;;;;;;;-147.65;100.00;57646.63;10316550;28;20482;-79
2023/07/16 09:01:40;;;;;;;9.70;4.93;;;;;;;-147.65;100.00;57646.63;10326816;28;20088;-80
2023/07/16 09:06:40;;;;;;;8.17;4.17;;;;;;;-147.65;100.00;57646.63;10318417;28;20490;-76
2023/07/16 09:11:47;;;;;;;8.20;4.37;;;;;;;-147.65;100.00;57646.63;10340305;28;20034;-76
2023/07/16 09:17:10;;;;;;;7.65;3.97;;;;;;;-147.65;100.00;57646.63;10315917;28;20096;-78
2023/07/16 09:22:11;;;;;;;8.98;4.57;;;;;;;-147.65;100.00;57646.63;10346597;28;20104;-76
2023/07/16 09:27:11;;;;;;;21.30;5.40;;;;;;;-147.65;100.00;57646.63;10325244;28;20042;-77
2023/07/16 09:32:12;;;;;;;6.63;3.80;;;;;;;-147.65;100.00;57646.63;10272758;28;20042;-78
2023/07/16 09:37:13;;;;;;;11.83;4.47;;;;;;;-147.65;100.00;57646.63;10320068;28;20042;-77
2023/07/16 09:42:13;;;;;;;8.97;4.67;;;;;;;-147.65;100.00;57646.63;10326382;28;20398;-78
2023/07/16 09:47:14;;;;;;;6.13;3.45;;;;;;;-147.65;100.00;57646.63;10294926;28;20050;-79
2023/07/16 09:52:15;;;;;;;9.33;4.40;;;;;;;-147.65;100.00;57646.63;10289766;28;20092;-77
2023/07/16 09:57:15;;;;;;;10.50;3.93;;;;;;;-147.65;100.00;57646.63;10284481;28;20563;-80
2023/07/16 10:02:16;;;;;;;9.57;3.93;;;;;;;-147.65;100.00;57646.63;10327741;28;20037;-84
2023/07/16 10:07:21;;;;;;;9.30;3.60;;;;;;;-147.65;100.00;57646.63;10330195;28;20438;-77
2023/07/16 10:12:24;;;;;;;22.85;3.78;;;;;;;-147.65;100.00;57646.63;10308821;28;20494;-81
2023/07/16 10:17:25;;;;;;;;;;;;;;;-147.65;100.00;57646.63;10320738;28;20102;-79
2023/07/16 10:22:39;;;;;;;8.35;3.80;;;;;;;-147.65;100.00;57646.63;10295853;28;20380;-80
2023/07/16 10:27:40;;;;;;;8.52;5.07;;;;;;;-147.65;100.00;57646.63;10263153;28;20471;-79
2023/07/16 10:32:41;;;;;;;7.73;3.23;;;;;;;-147.65;100.00;57646.63;10311933;28;20038;-79
2023/07/16 10:37:41;;;;;;;17.87;4.47;;;;;;;-147.65;100.00;57646.63;10342772;28;20395;-78
2023/07/16 10:42:46;;;;;;;4.67;3.00;;;;;;;-147.65;100.00;57646.63;10325130;28;20046;-79
2023/07/16 10:47:54;;;;;;;6.93;3.03;;;;;;;-147.65;100.00;57646.63;10283815;28;20046;-80
2023/07/16 10:52:55;;;;;;;11.40;3.70;;;;;;;-147.65;100.00;57646.63;10296075;28;20101;-79
2023/07/16 10:57:56;;;;;;;5.20;3.45;;;;;;;-147.65;100.00;57646.63;10355866;28;20038;-79
2023/07/16 11:02:56;;;;;;;6.83;3.00;;;;;;;-147.65;100.00;57646.63;10312620;28;20129;-78
2023/07/16 11:07:57;;;;;;;6.43;3.17;;;;;;;-147.65;100.00;57646.63;10322844;28;20054;-79
2023/07/16 11:12:58;;;;;;;9.33;3.33;;;;;;;-147.65;100.00;57646.63;10325949;28;20095;-80
2023/07/16 11:17:59;;;;;;;7.65;2.55;;;;;;;-147.65;100.00;57646.63;10321353;28;20467;-77
2023/07/16 11:23:00;;;;;;;8.52;4.78;;;;;;;-147.65;100.00;57646.63;10332951;28;20042;-80
2023/07/16 11:28:01;;;;;;;7.37;2.90;;;;;;;-147.65;100.00;57646.63;10309742;28;20086;-83
2023/07/16 11:33:01;;;;;;;8.07;3.70;;;;;;;-147.65;100.00;57646.63;10277155;28;20038;-79
2023/07/16 11:38:02;;;;;;;6.13;2.63;;;;;;;-147.65;100.00;57646.63;10325547;28;20094;-81
2023/07/16 11:43:12;;;;;;;11.60;4.40;;;;;;;-147.65;100.00;57646.63;10330309;28;20540;-77
2023/07/16 11:48:12;;;;;;;5.60;2.20;;;;;;;-147.65;100.00;57646.63;10324149;28;20513;-79
2023/07/16 11:53:13;;;;;;;8.57;4.37;;;;;;;-147.65;100.00;57646.63;10324905;28;20045;-78
2023/07/16 11:58:14;;;;;;;8.30;3.30;;;;;;;-147.65;100.00;57646.63;10309531;28;20046;-80
2023/07/16 12:03:14;;;;;;;5.37;2.70;;;;;;;-147.65;100.00;57646.63;10318279;28;20045;-81
2023/07/16 12:08:15;;;;;;;11.03;4.63;;;;;;;-147.65;100.00;57646.63;10302198;28;20069;-79
2023/07/16 12:13:15;;;;;;;8.80;3.63;;;;;;;-147.65;100.00;57646.63;10280465;28;20117;-80
2023/07/16 12:18:16;;;;;;;6.60;3.80;;;;;;;-147.65;100.00;57646.63;10312267;28;20101;-80
2023/07/16 12:23:16;;;;;;;5.03;3.33;;;;;;;-147.65;100.00;57646.63;10332895;28;20072;-79
2023/07/16 12:28:17;;;;;;;11.20;3.63;;;;;;;-147.65;100.00;57646.63;10326407;28;20066;-78
2023/07/16 12:33:17;;;;;;;5.03;2.43;;;;;;;-147.65;100.00;57646.63;10296812;28;20058;-80
2023/07/16 12:38:18;;;;;;;5.73;3.33;;;;;;;-147.65;100.00;57646.63;10303817;28;20046;-78
2023/07/16 12:43:18;;;;;;;5.87;3.40;;;;;;;-147.65;100.00;57646.63;10297528;28;20143;-79
2023/07/16 12:48:19;;;;;;;24.50;15.10;;;;;;;-147.65;100.00;57646.63;10305656;28;20050;-80
2023/07/16 12:53:19;;;;;;;71.43;46.37;;;;;;;-147.65;100.00;57646.63;10294037;28;20384;-80
2023/07/16 12:58:20;;;;;;;6.07;3.17;;;;;;;-147.65;100.00;57646.63;10297725;28;20046;-79
2023/07/16 13:03:21;;;;;;;4.93;3.07;;;;;;;-147.65;100.00;57646.63;10307244;28;20421;-80
2023/07/16 13:08:22;;;;;;;4.10;2.38;;;;;;;-147.65;100.00;57646.63;10280606;28;20047;-81
2023/07/16 13:13:22;;;;;;;5.60;2.67;;;;;;;-147.65;100.00;57646.63;10304752;28;20038;-81
2023/07/16 13:18:23;;;;;;;5.07;3.10;;;;;;;-147.65;100.00;57646.63;10333009;28;20125;-80
2023/07/16 13:23:24;;;;;;;5.30;2.80;;;;;;;-147.65;100.00;57646.63;10338865;28;20042;-81
2023/07/16 13:28:24;;;;;;;4.23;2.67;;;;;;;-147.65;100.00;57646.63;10333470;28;20095;-84
2023/07/16 13:33:25;;;;;;;5.90;2.57;;;;;;;-147.65;100.00;57646.63;10347117;28;20045;-80
2023/07/16 13:38:26;;;;;;;7.05;3.28;;;;;;;-147.65;100.00;57646.63;10319281;28;20053;-82
2023/07/16 13:43:26;;;;;;;5.40;2.63;;;;;;;-147.65;100.00;57646.63;10318290;28;20037;-82
2023/07/16 13:48:27;;;;;;;10.47;2.67;;;;;;;-147.65;100.00;57646.63;10320376;28;20034;-82
2023/07/16 13:53:28;;;;;;;6.53;2.63;;;;;;;-147.65;100.00;57646.63;10318931;28;20038;-82
2023/07/16 13:58:28;;;;;;;5.53;3.23;;;;;;;-147.65;100.00;57646.63;10290357;28;20399;-81
2023/07/16 14:03:29;;;;;;;5.50;3.10;;;;;;;-147.65;100.00;57646.63;10320763;28;20105;-81
2023/07/16 14:08:30;;;;;;;8.47;3.10;;;;;;;-147.65;100.00;57646.63;10286353;28;20437;-83
2023/07/16 14:13:31;;;;;;;5.97;3.83;;;;;;;-147.65;100.00;57646.63;10299195;28;20386;-81
2023/07/16 14:18:31;;;;;;;5.70;2.43;;;;;;;-147.65;100.00;57646.63;10345427;28;20066;-81
2023/07/16 14:23:32;;;;;;;7.43;2.77;;;;;;;-147.65;100.00;57646.63;10341547;28;20066;-79
2023/07/16 14:28:32;;;;;;;7.27;2.67;;;;;;;-147.65;100.00;57646.63;10325097;28;20038;-79
2023/07/16 14:33:33;;;;;;;6.93;3.93;;;;;;;-147.65;100.00;57646.63;10284229;28;20043;-79
2023/07/16 14:38:33;;;;;;;5.13;3.20;;;;;;;-147.65;100.00;57646.63;10319100;28;20065;-79
2023/07/16 14:43:34;;;;;;;11.23;3.47;;;;;;;-147.65;100.00;57646.63;10322011;28;20045;-79
2023/07/16 14:48:35;;;;;;;5.30;2.80;;;;;;;-147.65;100.00;57646.63;10330489;28;20042;-80
2023/07/16 14:53:36;;;;;;;6.93;3.17;;;;;;;-147.65;100.00;57646.63;10352956;28;20054;-80
2023/07/16 14:58:37;;;;;;;9.80;3.90;;;;;;;-147.65;100.00;57646.63;10323462;28;20034;-79
2023/07/16 15:03:40;;;;;;;13.27;4.45;;;;;;;-147.65;100.00;57646.63;10309311;28;20365;-79
2023/07/16 15:08:40;;;;;;;11.32;4.57;;;;;;;-147.65;100.00;57646.63;10306297;28;20051;-80
2023/07/16 15:13:41;;;;;;;5.30;2.43;;;;;;;-147.65;100.00;57646.63;10305915;28;20125;-80
2023/07/16 15:18:43;;;;;;;7.18;3.72;;;;;;;-147.65;100.00;57646.63;10313140;28;20043;-81
2023/07/16 15:23:45;;;;;;;6.27;3.03;;;;;;;-147.65;100.00;57646.63;10297711;28;20051;-80
2023/07/16 15:28:45;;;;;;;6.68;2.90;;;;;;;-147.65;100.00;57646.63;10282017;28;20058;-81
2023/07/16 15:33:46;;;;;;;6.87;3.60;;;;;;;-147.65;100.00;57646.63;10282498;28;20549;-81
2023/07/16 15:38:46;;;;;;;7.37;3.50;;;;;;;-147.65;100.00;57646.63;10306911;28;20467;-82
2023/07/16 15:43:49;;;;;;;10.33;2.70;;;;;;;-147.65;100.00;57646.63;10300429;28;20074;-82
2023/07/16 15:48:50;;;;;;;7.10;4.15;;;;;;;-147.65;100.00;57646.63;10277123;28;20459;-82
2023/07/16 15:53:54;;;;;;;7.00;3.50;;;;;;;-147.65;100.00;57646.63;10276214;28;20043;-81
2023/07/16 15:58:54;;;;;;;5.32;2.70;;;;;;;-147.65;100.00;57646.63;10319187;28;20050;-82
2023/07/16 16:03:55;;;;;;;7.10;3.90;;;;;;;-147.65;100.00;57646.63;10265421;28;20038;-81
2023/07/16 16:08:55;;;;;;;10.60;3.57;;;;;;;-147.65;100.00;57646.63;10280838;28;20043;-81
2023/07/16 16:13:56;;;;;;;12.67;3.93;;;;;;;-147.65;100.00;57646.63;10281078;28;20049;-80
2023/07/16 16:18:57;;;;;;;5.03;2.70;;;;;;;-147.65;100.00;57646.63;10300086;28;20042;-80
2023/07/16 16:23:58;;;;;;;9.70;3.37;;;;;;;-147.65;100.00;57646.63;10336090;28;20389;-81
2023/07/16 16:29:01;;;;;;;6.17;2.93;;;;;;;-147.65;100.00;57646.63;10313006;28;20058;-81
2023/07/16 16:34:01;;;;;;;5.65;3.00;;;;;;;-147.65;100.00;57646.63;10320421;28;20046;-80
2023/07/16 16:39:02;;;;;;;5.93;3.37;;;;;;;-147.65;100.00;57646.63;10314395;28;20415;-80
2023/07/16 16:44:03;;;;;;;9.23;4.10;;;;;;;-147.65;100.00;57646.63;10315994;28;20046;-81
2023/07/16 16:49:04;;;;;;;6.63;3.05;;;;;;;-147.65;100.00;57646.63;10281391;28;20051;-81
2023/07/16 16:54:04;;;;;;;8.27;3.53;;;;;;;-147.65;100.00;57646.63;10319754;28;20148;-80
2023/07/16 16:59:05;;;;;;;12.67;7.10;;;;;;;-147.65;100.00;57646.63;10314821;28;20559;-79
2023/07/16 17:04:06;;;;;;;7.43;4.03;;;;;;;-147.65;100.00;57646.63;10299409;28;20048;-79
2023/07/16 17:09:06;;;;;;;6.20;3.77;;;;;;;-147.65;100.00;57646.63;10317794;28;20093;-80
2023/07/16 17:14:07;;;;;;;10.27;4.10;;;;;;;-147.65;100.00;57646.63;10303625;28;20137;-81
2023/07/16 17:19:07;;;;;;;10.83;4.50;;;;;;;-147.65;100.00;57646.63;10298482;28;20057;-80
2023/07/16 17:24:11;;;;;;;8.77;3.83;;;;;;;-147.65;100.00;57646.63;10320399;28;20049;-81
2023/07/16 17:29:11;;;;;;;9.90;3.35;;;;;;;-147.65;100.00;57646.63;10261603;28;20106;-81
2023/07/16 17:34:12;;;;;;;11.98;4.63;;;;;;;-147.65;100.00;57646.63;10262596;28;20101;-81
2023/07/16 17:39:13;;;;;;;6.43;3.87;;;;;;;-147.65;100.00;57646.63;10303285;28;20039;-81
2023/07/16 17:44:14;;;;;;;9.67;4.57;;;;;;;-147.65;100.00;57646.63;10286780;28;20043;-81
2023/07/16 17:49:14;;;;;;;7.55;4.22;;;;;;;-147.65;100.00;57646.63;10293829;28;20436;-80
2023/07/16 17:54:15;;;;;;;6.95;3.30;;;;;;;-147.65;100.00;57646.63;10346474;28;20045;-82
2023/07/16 17:59:15;;;;;;;6.60;3.45;;;;;;;-147.65;100.00;57646.63;10303634;28;20394;-81
2023/07/16 18:04:16;;;;;;;9.40;4.65;;;;;;;-147.65;100.00;57646.63;10326410;28;20058;-82
2023/07/16 18:09:16;;;;;;;8.07;4.93;;;;;;;-147.65;100.00;57646.63;10323549;28;20535;-81
2023/07/16 18:14:17;;;;;;;6.28;3.17;;;;;;;-147.65;100.00;57646.63;10324095;28;20500;-81
2023/07/16 18:19:18;;;;;;;7.28;4.25;;;;;;;-147.65;100.00;57646.63;10298257;28;20066;-80
2023/07/16 18:24:18;;;;;;;8.55;3.67;;;;;;;-147.65;100.00;57646.63;10348804;28;20042;-80
2023/07/16 18:29:19;;;;;;;11.85;4.75;;;;;;;-147.65;100.00;57646.63;10324733;28;20038;-80
2023/07/16 18:34:20;;;;;;;8.90;4.43;;;;;;;-147.65;100.00;57646.63;10335182;28;20053;-79
2023/07/16 18:39:20;;;;;;;9.23;4.95;;;;;;;-147.65;100.00;57646.63;10329418;28;20038;-79
2023/07/16 18:44:21;;;;;;;9.98;3.63;;;;;;;-147.65;100.00;57646.63;10324106;28;20381;-80
2023/07/16 18:49:21;;;;;;;12.98;3.83;;;;;;;-147.65;100.00;57646.63;10319672;28;20046;-80
2023/07/16 18:54:22;;;;;;;10.35;4.63;;;;;;;-147.65;100.00;57646.63;10326786;28;20038;-80
2023/07/16 18:59:23;;;;;;;10.32;4.55;;;;;;;-147.65;100.00;57646.63;10323094;28;20039;-80
2023/07/16 19:04:23;;;;;;;15.02;4.57;;;;;;;-147.65;100.00;57646.63;10325192;28;20475;-80
2023/07/16 19:09:24;;;;;;;7.25;3.67;;;;;;;-147.65;100.00;57646.63;10329239;28;20081;-79
2023/07/16 19:14:24;;;;;;;9.38;4.57;;;;;;;-147.65;100.00;57646.63;10331179;28;20056;-80
2023/07/16 19:19:25;;;;;;;11.80;6.18;;;;;;;-147.65;100.00;57646.63;10344670;28;20410;-82
2023/07/16 19:24:25;;;;;;;16.50;6.38;;;;;;;-147.65;100.00;57646.63;10322307;28;20050;-81
2023/07/16 19:29:26;;;;;;;9.43;3.45;;;;;;;-147.65;100.00;57646.63;10306142;28;20043;-83
2023/07/16 19:34:26;;;;;;;9.23;5.28;;;;;;;-147.65;100.00;57646.63;10323843;28;20623;-83
2023/07/16 19:39:27;;;;;;;14.40;5.07;;;;;;;-147.65;100.00;57646.63;10324015;28;20038;-84
2023/07/16 19:44:27;;;;;;;9.07;4.13;;;;;;;-147.65;100.00;57646.63;10322257;28;20062;-83
2023/07/16 19:49:28;;;;;;;18.60;11.95;;;;;;;-147.65;100.00;57646.63;10319614;28;20042;-82
2023/07/16 19:54:29;;;;;;;13.93;8.07;;;;;;;-147.65;100.00;57646.63;10321148;28;20046;-82
2023/07/16 19:59:30;;;;;;;8.98;4.40;;;;;;;-147.65;100.00;57646.63;10319301;28;20069;-82
2023/07/16 20:04:30;;;;;;;9.43;5.60;;;;;;;-147.65;100.00;57646.63;10321814;28;20092;-83
2023/07/16 20:09:31;;;;;;;15.50;4.72;;;;;;;-147.65;100.00;57646.63;10322107;28;20450;-83
2023/07/16 20:14:32;;;;;;;8.13;4.85;;;;;;;-147.65;100.00;57646.63;10330708;28;20125;-83
2023/07/16 20:19:32;;;;;;;12.68;6.75;;;;;;;-147.65;100.00;57646.63;10320127;28;20034;-83
2023/07/16 20:24:40;;;;;;;14.73;4.40;;;;;;;15.64;100.00;101330.34;10508229;27;20417;-83
2023/07/16 20:29:41;;;;;;;10.48;4.95;;;;;;;15.52;100.00;101315.00;10461330;28;20037;-83
2023/07/16 20:34:41;;;;;;;8.50;5.05;;;;;;;15.44;100.00;101320.00;10478375;28;20156;-83
2023/07/16 20:39:42;;;;;;;11.70;5.60;;;;;;;15.40;100.00;101310.19;10476536;28;20032;-83
2023/07/16 20:45:08;;;;;;;8.55;4.85;;;;;;;15.38;100.00;101318.06;10475863;28;20045;-83
2023/07/16 20:50:10;;;;;;;11.35;6.85;;;;;;;15.40;100.00;101323.38;10459513;28;20049;-83
2023/07/16 20:55:11;;;;;;;8.27;4.75;;;;;;;15.44;100.00;101329.69;10447361;28;20048;-82
2023/07/16 21:00:20;;;;;;;9.07;4.95;;;;;;;15.48;100.00;101329.81;10469897;28;20048;-82
2023/07/16 21:05:22;;;;;;;14.07;6.03;;;;;;;15.46;100.00;101347.34;10501755;28;20143;-82
2023/07/16 21:10:24;;;;;;;10.48;5.57;;;;;;;15.45;100.00;101350.81;10517449;28;20120;-82
2023/07/16 21:15:26;;;;;;;23.33;6.03;;;;;;;15.45;100.00;101387.75;10500468;27;20044;-80
2023/07/16 21:20:28;;;;;;;14.88;4.95;;;;;;;15.34;100.00;101371.56;10517583;27;20489;-80
2023/07/16 21:25:28;;;;;;;9.18;4.70;;;;;;;15.06;100.00;101336.28;10499883;27;20044;-81
2023/07/16 21:30:29;;;;;;;12.27;5.20;;;;;;;14.89;100.00;101348.81;10546250;27;20072;-81
2023/07/16 21:35:30;;;;;;;12.27;6.38;;;;;;;14.73;100.00;101335.88;10491391;28;20052;-81
2023/07/16 21:40:34;;;;;;;12.93;5.50;;;;;;;14.51;100.00;101328.03;10489228;28;20037;-81
2023/07/16 21:45:34;;;;;;;23.70;6.63;;;;;;;14.36;100.00;101325.69;10488299;28;20041;-81
2023/07/16 21:50:35;;;;;;;15.30;6.95;;;;;;;14.23;100.00;101334.84;10462917;28;20041;-81
2023/07/16 21:55:36;;;;;;;12.10;8.25;;;;;;;14.18;100.00;101336.41;10469717;28;20047;-81
2023/07/16 22:00:36;;;;;;;23.45;9.90;;;;;;;14.17;100.00;101337.22;10446854;28;20039;-81
2023/07/16 22:05:38;;;;;;;15.82;7.85;;;;;;;14.14;100.00;101357.25;10487436;28;20115;-81
2023/07/16 22:10:40;;;;;;;13.93;6.28;;;;;;;14.12;100.00;101356.28;10486715;28;20040;-81
2023/07/16 22:15:42;;;;;;;15.93;6.50;;;;;;;14.13;100.00;101356.38;10462533;28;20037;-82
2023/07/16 22:20:42;;;;;;;13.40;7.47;;;;;;;14.15;100.00;101362.59;10469782;28;20404;-81
2023/07/16 22:25:43;;;;;;;19.80;8.45;;;;;;;14.05;100.00;101342.00;10486051;28;20043;-81
2023/07/16 22:30:43;;;;;;;16.02;7.68;;;;;;;13.97;100.00;101364.47;10502243;28;20121;-81